Thunderstorms From: 21-05-2018 15:00 Until: 22-05-2018 15:00 warning for: Thunderstorms Level: Yellow info button

Although rather usual in this region, locally or potentially dangerous phenomena are expected. (such as local winds, summer thunderstorms, rising streams or high waves) Be aware and pay attention to the latest weather updates, especially if you carry out activities exposed to weather or close to a stream or shoreline. 


Meteo18 Weather Cam more information Meteo18 Weather Cam


warning for Thunderstorms more information blitzortung!


Rain radar more information rain snow radar


Visit our other weather sites:

Template documentation
and downloads

And another site



Weather Underground History page Text

Daily Summary for April 30, 2017 Units:  English    Metric   Both
« Previous Day
Next Day »
Daily Weekly Monthly Yearly Custom
  High: Low: Average:
Temperature: TemperatureC °F 4.7 °F 10.8 °F
Dew Point: DewpointC °F 0.6 °F 4.6 °F
Humidity: Humidity % 43 % 68 %
Wind Speed: WindSpeedKMH mph 0.0 mph 6.3 mph
Wind Gust: WindSpeedGustKMH mph - -
Wind:- - SSE
Pressure: PressurehPa in 1000.6 in -
Precipitation: 15.0 in    
Historical Graphs
 
 
Tabular Data for April 30, 2017
Time Temperature Dew Point Pressure Wind Wind Speed Wind Gust Humidity Rainfall Rate (Hourly)
TemperatureC °F DewpointC °F PressurehPa in Calm     Humidity % HourlyPrecipMM in
00:02 9.4 °F 2.0 °F 1010.4 in NE 1.6 mph 4.8 mph 60 % 0.0 in
00:07 9.4 °F 2.0 °F 1010.4 in NE 1.6 mph 6.4 mph 60 % 0.0 in
00:12 9.3 °F 1.9 °F 1010.4 in NE 1.6 mph 6.4 mph 60 % 0.0 in
00:17 9.3 °F 1.9 °F 1010.4 in NE 3.2 mph 6.4 mph 60 % 0.0 in
00:22 9.4 °F 2.0 °F 1010.4 in NE 3.2 mph 6.4 mph 60 % 0.0 in
00:27 9.4 °F 1.8 °F 1010.4 in NE 1.6 mph 4.8 mph 59 % 0.0 in
00:32 9.3 °F 1.9 °F 1010.4 in NE 3.2 mph 4.8 mph 60 % 0.0 in
00:42 9.2 °F 1.8 °F 1010.4 in NNE 3.2 mph 4.8 mph 60 % 0.0 in
00:47 9.1 °F 1.7 °F 1010.0 in NE 3.2 mph 4.8 mph 60 % 0.0 in
00:52 9.1 °F 2.0 °F 1010.0 in North 1.6 mph 4.8 mph 61 % 0.0 in
00:57 8.6 °F 1.7 °F 1010.0 in WNW 1.6 mph 4.8 mph 62 % 0.0 in
01:02 8.1 °F 1.9 °F 1010.0 in Calm   4.8 mph 65 % 0.0 in
01:07 8.0 °F 1.8 °F 1010.0 in NNW 1.6 mph 4.8 mph 65 % 0.0 in
01:12 8.3 °F 1.9 °F 1010.0 in North 1.6 mph 4.8 mph 64 % 0.0 in
01:17 8.3 °F 1.7 °F 1010.0 in Calm   3.2 mph 63 % 0.0 in
01:22 7.7 °F 1.7 °F 1010.0 in WNW 1.6 mph 3.2 mph 66 % 0.0 in
01:27 7.6 °F 1.9 °F 1010.0 in Calm   3.2 mph 67 % 0.0 in
01:32 8.2 °F 2.0 °F 1010.0 in Calm   3.2 mph 65 % 0.0 in
01:37 8.2 °F 1.8 °F 1010.0 in Calm   3.2 mph 64 % 0.0 in
01:42 8.2 °F 2.0 °F 1010.0 in Calm   3.2 mph 65 % 0.0 in
01:47 8.1 °F 1.9 °F 1010.0 in Calm   1.6 mph 65 % 0.0 in
01:52 8.4 °F 2.2 °F 1009.7 in Calm   1.6 mph 65 % 0.0 in
02:02 8.5 °F 1.9 °F 1009.7 in Calm   1.6 mph 63 % 0.0 in
02:12 7.9 °F 1.7 °F 1009.7 in Calm   1.6 mph 65 % 0.0 in
02:17 7.6 °F 1.9 °F 1009.7 in Calm     67 % 0.0 in
02:22 7.9 °F 2.2 °F 1009.7 in Calm   3.2 mph 67 % 0.0 in
02:32 8.3 °F 1.9 °F 1009.7 in SSW 1.6 mph 3.2 mph 64 % 0.0 in
02:42 7.9 °F 1.9 °F 1009.7 in Calm   4.8 mph 66 % 0.0 in
02:47 8.0 °F 1.8 °F 1009.7 in Calm   1.6 mph 65 % 0.0 in
02:52 7.9 °F 1.9 °F 1009.7 in Calm   3.2 mph 66 % 0.0 in
02:57 7.7 °F 1.7 °F 1009.7 in Calm   3.2 mph 66 % 0.0 in
03:02 7.6 °F 1.9 °F 1009.4 in Calm   3.2 mph 67 % 0.0 in
03:12 7.6 °F 1.9 °F 1009.4 in Calm   1.6 mph 67 % 0.0 in
03:17 7.6 °F 2.1 °F 1009.4 in Calm   1.6 mph 68 % 0.0 in
03:22 7.7 °F 2.0 °F 1009.4 in Calm   1.6 mph 67 % 0.0 in
03:32 7.6 °F 1.9 °F 1009.4 in Calm   1.6 mph 67 % 0.0 in
03:37 7.2 °F 1.7 °F 1009.4 in Calm   1.6 mph 68 % 0.0 in
03:42 7.0 °F 1.7 °F 1009.4 in Calm   1.6 mph 69 % 0.0 in
03:47 6.9 °F 1.8 °F 1009.4 in Calm   1.6 mph 70 % 0.0 in
03:52 6.8 °F 1.7 °F 1009.4 in Calm   1.6 mph 70 % 0.0 in
03:57 6.9 °F 1.8 °F 1009.4 in Calm   1.6 mph 70 % 0.0 in
04:02 6.9 °F 1.8 °F 1009.4 in Calm   1.6 mph 70 % 0.0 in
04:12 6.1 °F 1.8 °F 1009.4 in Calm   1.6 mph 74 % 0.0 in
04:17 6.1 °F 2.0 °F 1009.4 in Calm   3.2 mph 75 % 0.0 in
04:22 6.4 °F 1.9 °F 1009.4 in Calm   3.2 mph 73 % 0.0 in
04:32 6.6 °F 1.9 °F 1009.4 in Calm   1.6 mph 72 % 0.0 in
04:42 6.4 °F 1.7 °F 1009.4 in Calm     72 % 0.0 in
04:52 6.1 °F 1.6 °F 1009.4 in Calm   1.6 mph 73 % 0.0 in
04:57 6.4 °F 1.5 °F 1009.0 in Calm   1.6 mph 71 % 0.0 in
05:02 6.6 °F 1.5 °F 1009.0 in North 1.6 mph 1.6 mph 70 % 0.0 in
05:12 6.8 °F 1.5 °F 1008.7 in Calm   3.2 mph 69 % 0.0 in
05:17 6.5 °F 1.4 °F 1008.7 in Calm   3.2 mph 70 % 0.0 in
05:22 6.2 °F 1.3 °F 1008.7 in North 1.6 mph 1.6 mph 71 % 0.0 in
05:27 6.2 °F 1.5 °F 1008.7 in Calm   1.6 mph 72 % 0.0 in
05:32 6.1 °F 1.4 °F 1008.7 in Calm   1.6 mph 72 % 0.0 in
05:37 6.0 °F 1.3 °F 1008.7 in NW 1.6 mph 1.6 mph 72 % 0.0 in
05:42 5.7 °F 1.2 °F 1008.7 in WNW 1.6 mph   73 % 0.0 in
05:47 5.7 °F 1.2 °F 1008.7 in Calm     73 % 0.0 in
05:52 6.1 °F 1.2 °F 1008.4 in Calm   3.2 mph 71 % 0.0 in
05:57 6.1 °F 1.2 °F 1008.4 in Calm   3.2 mph 71 % 0.0 in
06:02 6.2 °F 1.1 °F 1008.4 in NNW 1.6 mph 1.6 mph 70 % 0.0 in
06:12 6.4 °F 1.1 °F 1008.4 in North 1.6 mph 1.6 mph 69 % 0.0 in
06:17 6.3 °F 1.0 °F 1008.4 in North 3.2 mph 3.2 mph 69 % 0.0 in
06:22 6.3 °F 0.8 °F 1008.4 in North 3.2 mph 3.2 mph 68 % 0.0 in
06:32 5.5 °F 0.7 °F 1008.4 in Calm   3.2 mph 71 % 0.0 in
06:37 5.3 °F 0.7 °F 1008.4 in Calm   3.2 mph 72 % 0.0 in
06:42 5.2 °F 0.8 °F 1008.0 in Calm   3.2 mph 73 % 0.0 in
06:47 5.4 °F 0.8 °F 1008.0 in Calm   3.2 mph 72 % 0.0 in
06:52 5.5 °F 0.7 °F 1008.0 in Calm   3.2 mph 71 % 0.0 in
07:02 4.7 °F 0.6 °F 1008.0 in Calm     75 % 0.0 in
07:12 4.8 °F 0.9 °F 1008.0 in Calm     76 % 0.0 in
07:17 5.4 °F 0.9 °F 1007.7 in Calm     73 % 0.0 in
07:22 5.9 °F 0.8 °F 1007.7 in Calm     70 % 0.0 in
07:27 6.1 °F 0.8 °F 1007.7 in Calm     69 % 0.0 in
07:32 6.3 °F 1.0 °F 1007.7 in Calm     69 % 0.0 in
07:42 6.8 °F 1.1 °F 1007.7 in Calm     67 % 0.0 in
07:47 7.3 °F 1.2 °F 1007.7 in Calm     65 % 0.0 in
07:52 7.9 °F 1.5 °F 1007.7 in Calm     64 % 0.0 in
07:57 8.4 °F 1.5 °F 1007.3 in Calm     62 % 0.0 in
08:02 9.0 °F 1.9 °F 1007.7 in Calm     61 % 0.0 in
08:12 9.1 °F 1.7 °F 1007.7 in Calm   4.8 mph 60 % 0.0 in
08:17 9.1 °F 1.7 °F 1007.7 in SE 1.6 mph 4.8 mph 60 % 0.0 in
08:22 9.2 °F 2.1 °F 1007.3 in Calm   4.8 mph 61 % 0.0 in
08:32 9.9 °F 2.0 °F 1007.3 in Calm   3.2 mph 58 % 0.0 in
08:42 10.7 °F 1.8 °F 1007.3 in Calm     54 % 0.0 in
08:47 10.7 °F 1.8 °F 1007.3 in SSE 4.8 mph   54 % 0.0 in
08:52 10.6 °F 1.7 °F 1007.3 in SE 4.8 mph 9.7 mph 54 % 0.0 in
08:57 10.7 °F 2.0 °F 1007.3 in SE 3.2 mph 9.7 mph 55 % 0.0 in
09:02 10.8 °F 1.6 °F 1007.0 in SE 6.4 mph 12.9 mph 53 % 0.0 in
09:12 11.1 °F 1.3 °F 1007.0 in East 3.2 mph 17.7 mph 51 % 0.0 in
09:17 11.4 °F 1.6 °F 1007.0 in SE 6.4 mph 17.7 mph 51 % 0.0 in
09:22 11.6 °F 1.2 °F 1007.0 in East 8.0 mph 17.7 mph 49 % 0.0 in
09:32 11.9 °F 1.5 °F 1006.7 in SSE 8.0 mph 19.3 mph 49 % 0.0 in
09:42 12.3 °F 1.6 °F 1006.7 in South 6.4 mph 19.3 mph 48 % 0.0 in
09:52 12.7 °F 1.7 °F 1006.7 in WSW 3.2 mph 22.5 mph 47 % 0.0 in
09:57 12.9 °F 1.9 °F 1006.3 in SE 1.6 mph 22.5 mph 47 % 0.0 in
10:02 13.2 °F 1.8 °F 1006.3 in East 11.3 mph 22.5 mph 46 % 0.0 in
10:12 13.5 °F 2.1 °F 1006.3 in ESE 11.3 mph 22.5 mph 46 % 0.0 in
10:17 13.7 °F 2.3 °F 1006.3 in SE 12.9 mph 22.5 mph 46 % 0.0 in
10:22 14.0 °F 2.2 °F 1006.3 in SE 11.3 mph 22.5 mph 45 % 0.0 in
10:32 14.4 °F 3.2 °F 1006.0 in East 8.0 mph 19.3 mph 47 % 0.0 in
10:42 14.9 °F 3.1 °F 1006.3 in SE 8.0 mph 19.3 mph 45 % 0.0 in
10:47 15.1 °F 3.3 °F 1006.0 in East 12.9 mph 19.3 mph 45 % 0.0 in
10:52 15.4 °F 2.9 °F 1006.0 in SSE 4.8 mph 19.3 mph 43 % 0.0 in
10:57 15.7 °F 3.8 °F 1006.0 in SSE 3.2 mph 19.3 mph 45 % 0.0 in
11:02 15.6 °F 3.4 °F 1006.0 in SW 11.3 mph 19.3 mph 44 % 0.0 in
11:12 15.7 °F 3.5 °F 1005.6 in ESE 14.5 mph 20.9 mph 44 % 0.0 in
11:17 15.7 °F 3.8 °F 1005.6 in SE 16.1 mph 20.9 mph 45 % 0.0 in
11:22 15.7 °F 3.5 °F 1005.6 in SSE 6.4 mph 27.4 mph 44 % 0.0 in
11:32 16.4 °F 4.7 °F 1005.6 in South 8.0 mph 22.5 mph 46 % 0.0 in
11:37 16.7 °F 4.1 °F 1005.3 in SE 6.4 mph 22.5 mph 43 % 0.0 in
11:42 16.9 °F 4.2 °F 1005.3 in SE 6.4 mph 22.5 mph 43 % 0.0 in
11:52 17.0 °F 4.3 °F 1005.0 in ESE 11.3 mph 25.7 mph 43 % 0.0 in
11:57 17.4 °F 4.7 °F 1005.0 in South 6.4 mph 25.7 mph 43 % 0.0 in
12:02 17.3 °F 4.9 °F 1005.0 in SSW 6.4 mph 22.5 mph 44 % 0.0 in
12:12 17.3 °F 5.3 °F 1005.0 in ESE 9.7 mph 25.7 mph 45 % 0.0 in
12:17 17.7 °F 5.3 °F 1004.6 in SE 14.5 mph 25.7 mph 44 % 0.0 in
12:22 17.5 °F 5.4 °F 1004.6 in East 11.3 mph 25.7 mph 45 % 0.0 in
12:32 17.9 °F 5.8 °F 1004.6 in SE 17.7 mph 27.4 mph 45 % 0.0 in
12:37 17.9 °F 6.1 °F 1004.6 in ESE 19.3 mph 27.4 mph 46 % 0.0 in
12:42 18.1 °F 6.0 °F 1004.3 in SW 4.8 mph 27.4 mph 45 % 0.0 in
12:47 18.3 °F 6.5 °F 1004.3 in East 12.9 mph 27.4 mph 46 % 0.0 in
12:52 18.2 °F 6.4 °F 1004.3 in SE 17.7 mph 32.2 mph 46 % 0.0 in
13:02 17.7 °F 6.2 °F 1004.3 in South 12.9 mph 32.2 mph 47 % 0.0 in
13:12 17.6 °F 6.5 °F 1004.3 in South 14.5 mph 25.7 mph 48 % 0.0 in
13:17 17.6 °F 6.8 °F 1003.9 in SE 8.0 mph 25.7 mph 49 % 0.0 in
13:22 17.6 °F 6.8 °F 1003.9 in SE 8.0 mph 25.7 mph 49 % 0.0 in
13:32 17.2 °F 6.7 °F 1004.3 in SSE 3.2 mph 25.7 mph 50 % 0.0 in
13:37 17.1 °F 6.6 °F 1004.3 in East 14.5 mph 25.7 mph 50 % 0.0 in
13:42 16.8 °F 6.9 °F 1003.9 in SSE 14.5 mph 25.7 mph 52 % 0.0 in
13:47 16.6 °F 7.5 °F 1004.3 in South 8.0 mph 25.7 mph 55 % 0.0 in
13:52 16.4 °F 7.9 °F 1004.3 in SE 11.3 mph 20.9 mph 57 % 0.0 in
13:57 16.3 °F 7.8 °F 1003.9 in South 4.8 mph 20.9 mph 57 % 0.0 in
14:02 16.3 °F 8.0 °F 1003.9 in SSE 3.2 mph 20.9 mph 58 % 0.0 in
14:12 16.3 °F 8.5 °F 1003.6 in ESE 11.3 mph 17.7 mph 60 % 0.0 in
14:17 16.3 °F 9.2 °F 1003.6 in ESE 6.4 mph 12.9 mph 63 % 0.0 in
14:22 16.4 °F 9.3 °F 1003.6 in East 3.2 mph 12.9 mph 63 % 0.0 in
14:27 16.4 °F 8.6 °F 1003.3 in SE 4.8 mph 11.3 mph 60 % 0.0 in
14:32 16.4 °F 9.3 °F 1002.9 in East 8.0 mph 12.9 mph 63 % 0.0 in
14:42 16.4 °F 8.9 °F 1002.9 in ESE 3.2 mph 12.9 mph 61 % 0.0 in
14:47 16.6 °F 9.0 °F 1002.9 in East 6.4 mph 16.1 mph 61 % 0.0 in
14:52 16.9 °F 9.1 °F 1002.9 in SE 11.3 mph 17.7 mph 60 % 0.0 in
14:57 16.8 °F 9.0 °F 1002.9 in SE 8.0 mph 19.3 mph 60 % 0.0 in
15:02 16.8 °F 8.7 °F 1002.9 in ESE 4.8 mph 19.3 mph 59 % 0.0 in
15:12 16.8 °F 9.2 °F 1002.6 in ENE 4.8 mph 19.3 mph 61 % 0.0 in
15:17 16.9 °F 9.1 °F 1002.3 in ESE 4.8 mph 19.3 mph 60 % 0.0 in
15:22 16.9 °F 9.3 °F 1002.3 in SE 4.8 mph 19.3 mph 61 % 0.0 in
15:32 16.7 °F 9.1 °F 1002.3 in East 3.2 mph 17.7 mph 61 % 0.0 in
15:42 16.7 °F 8.9 °F 1001.9 in ENE 3.2 mph 20.9 mph 60 % 0.0 in
15:52 16.9 °F 9.1 °F 1001.6 in SSE 4.8 mph 19.3 mph 60 % 0.0 in
16:02 17.1 °F 8.8 °F 1001.6 in SSE 11.3 mph 27.4 mph 58 % 0.0 in
16:12 17.6 °F 8.7 °F 1001.2 in ESE 16.1 mph 27.4 mph 56 % 0.0 in
16:17 17.6 °F 8.2 °F 1001.2 in SE 22.5 mph 27.4 mph 54 % 0.0 in
16:22 17.7 °F 8.0 °F 1001.2 in SSW 17.7 mph 27.4 mph 53 % 0.0 in
16:32 18.0 °F 8.3 °F 1000.9 in SE 11.3 mph 38.6 mph 53 % 0.0 in
16:37 18.2 °F 8.2 °F 1000.9 in ESE 14.5 mph 38.6 mph 52 % 0.0 in
16:47 18.3 °F 8.0 °F 1000.9 in East 9.7 mph 25.7 mph 51 % 0.0 in
16:52 18.2 °F 7.9 °F 1000.6 in SW 9.7 mph 29.0 mph 51 % 0.0 in
16:57 18.2 °F 7.9 °F 1000.6 in SE 16.1 mph 35.4 mph 51 % 0.0 in
17:02 18.1 °F 7.8 °F 1000.6 in SSW 20.9 mph 35.4 mph 51 % 0.0 in
17:07 18.1 °F 7.8 °F 1000.6 in East 19.3 mph 37.0 mph 51 % 0.0 in
17:12 18.0 °F 8.0 °F 1000.9 in SSW 12.9 mph 37.0 mph 52 % 0.0 in
17:17 18.0 °F 8.0 °F 1000.9 in SE 16.1 mph 37.0 mph 52 % 0.0 in
17:22 17.9 °F 8.2 °F 1000.9 in SW 8.0 mph 29.0 mph 53 % 0.0 in
17:27 17.7 °F 8.5 °F 1000.9 in South 19.3 mph 25.7 mph 55 % 0.0 in
17:32 15.9 °F 9.3 °F 1001.9 in SW 27.4 mph 27.4 mph 65 % 0.0 in
17:42 11.7 °F 9.6 °F 1002.3 in West 35.4 mph 41.8 mph 87 % 0.0 in
17:47 11.1 °F 9.4 °F 1002.6 in WSW 11.3 mph 57.9 mph 89 % 0.5 in
17:52 10.9 °F 9.3 °F 1002.6 in West 14.5 mph 57.9 mph 90 % 2.3 in
17:57 10.8 °F 9.2 °F 1002.9 in West 16.1 mph 45.1 mph 90 % 3.3 in
18:02 10.6 °F 8.9 °F 1002.9 in West 33.8 mph 38.6 mph 89 % 3.3 in
18:12 10.2 °F 8.6 °F 1002.9 in West 29.0 mph 40.2 mph 90 % 3.8 in
18:17 10.1 °F 8.5 °F 1003.3 in WSW 6.4 mph 40.2 mph 90 % 4.6 in
18:22 10.0 °F 8.4 °F 1003.3 in West 14.5 mph 40.2 mph 90 % 4.6 in
18:27 9.9 °F 8.5 °F 1003.3 in WSW 14.5 mph 33.8 mph 91 % 5.1 in
18:32 9.9 °F 8.5 °F 1003.6 in West 12.9 mph 33.8 mph 91 % 5.1 in
18:42 9.8 °F 8.6 °F 1003.6 in SW 9.7 mph 22.5 mph 92 % 5.8 in
18:52 9.8 °F 8.7 °F 1003.9 in West 6.4 mph 19.3 mph 93 % 4.3 in
18:57 9.7 °F 8.6 °F 1003.9 in West 4.8 mph 17.7 mph 93 % 4.3 in
19:02 9.7 °F 8.6 °F 1003.9 in WSW 6.4 mph 14.5 mph 93 % 4.3 in
19:12 9.6 °F 8.5 °F 1003.9 in WSW 6.4 mph 14.5 mph 93 % 4.6 in
19:22 9.5 °F 8.4 °F 1003.9 in SW 8.0 mph 19.3 mph 93 % 4.8 in
19:32 9.4 °F 8.3 °F 1004.3 in SW 16.1 mph 17.7 mph 93 % 5.1 in
19:42 9.1 °F 7.9 °F 1004.6 in South 17.7 mph 19.3 mph 92 % 5.6 in
19:47 8.9 °F 7.7 °F 1004.6 in WSW 6.4 mph 20.9 mph 92 % 5.6 in
19:52 8.7 °F 7.5 °F 1004.6 in SW 9.7 mph 20.9 mph 92 % 5.1 in
19:57 8.5 °F 7.3 °F 1005.0 in SW 8.0 mph 19.3 mph 92 % 4.6 in
20:02 8.4 °F 7.3 °F 1005.0 in WSW 14.5 mph 22.5 mph 93 % 4.3 in
20:12 8.4 °F 7.3 °F 1005.3 in SW 4.8 mph 24.1 mph 93 % 3.8 in
20:17 8.3 °F 7.2 °F 1005.6 in SW 8.0 mph 24.1 mph 93 % 3.3 in
20:22 8.3 °F 7.2 °F 1006.0 in South 6.4 mph 19.3 mph 93 % 3.3 in
20:32 8.2 °F 7.3 °F 1006.0 in SSW 12.9 mph 19.3 mph 94 % 3.0 in
20:42 8.2 °F 7.3 °F 1006.0 in SW 11.3 mph 17.7 mph 94 % 2.5 in
20:47 8.1 °F 7.2 °F 1006.3 in SSW 4.8 mph 17.7 mph 94 % 2.3 in
20:52 8.1 °F 7.2 °F 1006.0 in SSW 6.4 mph 14.5 mph 94 % 2.3 in
20:57 8.1 °F 7.2 °F 1006.3 in South 4.8 mph 14.5 mph 94 % 2.0 in
21:02 8.1 °F 7.2 °F 1006.3 in SW 4.8 mph 14.5 mph 94 % 2.0 in
21:12 8.0 °F 7.1 °F 1006.3 in South 8.0 mph 12.9 mph 94 % 1.8 in
21:17 7.9 °F 7.0 °F 1006.3 in SSW 1.6 mph 12.9 mph 94 % 1.3 in
21:22 7.9 °F 7.0 °F 1006.3 in SSW 3.2 mph 12.9 mph 94 % 1.0 in
21:32 7.9 °F 7.0 °F 1006.3 in South 4.8 mph 9.7 mph 94 % 0.5 in
21:42 7.8 °F 6.9 °F 1006.0 in SE 3.2 mph 9.7 mph 94 % 0.5 in
21:52 7.7 °F 6.8 °F 1005.6 in SSE 1.6 mph 9.7 mph 94 % 0.8 in
21:57 7.7 °F 6.8 °F 1006.0 in SW 1.6 mph 8.0 mph 94 % 0.5 in
22:02 7.7 °F 6.8 °F 1006.7 in South 4.8 mph 6.4 mph 94 % 0.5 in
22:12 7.7 °F 6.8 °F 1007.3 in South 8.0 mph 14.5 mph 94 % 0.5 in
22:17 7.7 °F 6.8 °F 1007.3 in SSW 6.4 mph 16.1 mph 94 % 0.5 in
22:22 7.7 °F 6.6 °F 1007.3 in SSW 9.7 mph 17.7 mph 93 % 0.5 in
22:32 7.7 °F 6.5 °F 1007.3 in SW 14.5 mph 22.5 mph 92 % 0.5 in
22:42 7.7 °F 6.5 °F 1007.7 in South 11.3 mph 22.5 mph 92 % 0.5 in
22:47 7.7 °F 6.5 °F 1007.7 in SSW 8.0 mph 24.1 mph 92 % 0.3 in
22:52 7.6 °F 6.4 °F 1007.3 in SE 11.3 mph 24.1 mph 92 % 0.3 in
22:57 7.6 °F 6.4 °F 1007.3 in SW 6.4 mph 22.5 mph 92 % 0.3 in
23:02 7.6 °F 6.4 °F 1007.3 in South 8.0 mph 22.5 mph 92 % 0.3 in
23:12 7.5 °F 6.3 °F 1007.3 in SW 9.7 mph 22.5 mph 92 % 0.3 in
23:17 7.4 °F 6.0 °F 1007.3 in SSW 9.7 mph 22.5 mph 91 % 0.3 in
23:22 7.4 °F 6.0 °F 1007.0 in SSW 11.3 mph 22.5 mph 91 % 0.3 in
23:27 7.4 °F 6.0 °F 1007.0 in South 12.9 mph 22.5 mph 91 % 0.0 in
23:32 7.3 °F 5.9 °F 1007.0 in SW 4.8 mph 20.9 mph 91 % 0.0 in
23:37 7.2 °F 5.8 °F 1007.3 in SW 6.4 mph 19.3 mph 91 % 0.0 in
23:42 7.2 °F 5.8 °F 1007.3 in SSW 9.7 mph 19.3 mph 91 % 0.0 in
23:52 7.1 °F 5.7 °F 1007.3 in SSW 12.9 mph 17.7 mph 91 % 0.0 in
23:57 7.1 °F 5.7 °F 1007.7 in SSW 12.9 mph 16.1 mph 91 % 0.0 in
Meteo18
Compliments of Weather Underground - 4 mb

Script developed by  Jim McMurry - jmcmurry@mwt.net Adapted for the template by  Wim van der Kuil - Leuven-Template.eu

You find our weather info also at:

European Weather Network

Weather Underground

Equipment we use:

Weather-station
Davis Vue

Weather-program
Meteobridge

Weather-server
Raspberry PI 2 B+

Provider
1 and 1

Davis Vue

Meteobridge

Raspberry PI 2 B+

1 and 1